sensor_id;sensor_type;location;lat;lon;timestamp;P1;durP1;ratioP1;P2;durP2;ratioP2
23531;SDS011;11943;52.270;20.978;2023-07-31T00:00:14;2.45;;;2.10;;
23531;SDS011;11943;52.270;20.978;2023-07-31T00:02:40;3.08;;;2.03;;
23531;SDS011;11943;52.270;20.978;2023-07-31T00:05:07;2.67;;;1.90;;
23531;SDS011;11943;52.270;20.978;2023-07-31T00:07:33;3.35;;;2.38;;
23531;SDS011;11943;52.270;20.978;2023-07-31T00:09:59;2.47;;;2.10;;
23531;SDS011;11943;52.270;20.978;2023-07-31T00:12:25;5.60;;;2.33;;
23531;SDS011;11943;52.270;20.978;2023-07-31T00:14:50;2.17;;;1.98;;
23531;SDS011;11943;52.270;20.978;2023-07-31T00:17:16;4.53;;;2.10;;
23531;SDS011;11943;52.270;20.978;2023-07-31T00:19:42;4.65;;;1.75;;
23531;SDS011;11943;52.270;20.978;2023-07-31T00:22:08;3.60;;;2.08;;
23531;SDS011;11943;52.270;20.978;2023-07-31T00:24:33;2.17;;;1.90;;
23531;SDS011;11943;52.270;20.978;2023-07-31T00:26:59;4.53;;;2.00;;
23531;SDS011;11943;52.270;20.978;2023-07-31T00:29:25;7.53;;;2.00;;
23531;SDS011;11943;52.270;20.978;2023-07-31T00:31:50;2.40;;;1.88;;
23531;SDS011;11943;52.270;20.978;2023-07-31T00:34:16;2.55;;;2.08;;
23531;SDS011;11943;52.270;20.978;2023-07-31T00:36:41;2.42;;;2.20;;
23531;SDS011;11943;52.270;20.978;2023-07-31T00:39:07;3.70;;;1.75;;
23531;SDS011;11943;52.270;20.978;2023-07-31T00:41:33;3.05;;;1.98;;
23531;SDS011;11943;52.270;20.978;2023-07-31T00:43:58;2.70;;;2.03;;
23531;SDS011;11943;52.270;20.978;2023-07-31T00:46:24;2.20;;;2.03;;
23531;SDS011;11943;52.270;20.978;2023-07-31T00:48:49;2.30;;;2.10;;
23531;SDS011;11943;52.270;20.978;2023-07-31T00:51:15;2.55;;;2.03;;
23531;SDS011;11943;52.270;20.978;2023-07-31T00:53:41;3.50;;;2.10;;
23531;SDS011;11943;52.270;20.978;2023-07-31T00:56:08;2.53;;;2.10;;
23531;SDS011;11943;52.270;20.978;2023-07-31T00:58:35;2.13;;;1.70;;
23531;SDS011;11943;52.270;20.978;2023-07-31T01:01:00;5.25;;;2.30;;
23531;SDS011;11943;52.270;20.978;2023-07-31T01:03:26;2.80;;;2.08;;
23531;SDS011;11943;52.270;20.978;2023-07-31T01:08:34;5.80;;;2.08;;
23531;SDS011;11943;52.270;20.978;2023-07-31T01:11:22;6.65;;;2.13;;
23531;SDS011;11943;52.270;20.978;2023-07-31T01:13:55;7.90;;;2.05;;
23531;SDS011;11943;52.270;20.978;2023-07-31T01:16:22;2.10;;;1.90;;
23531;SDS011;11943;52.270;20.978;2023-07-31T01:18:48;4.80;;;2.40;;
23531;SDS011;11943;52.270;20.978;2023-07-31T01:26:41;4.28;;;2.20;;
23531;SDS011;11943;52.270;20.978;2023-07-31T01:29:26;3.88;;;2.30;;
23531;SDS011;11943;52.270;20.978;2023-07-31T01:32:01;6.22;;;2.10;;
23531;SDS011;11943;52.270;20.978;2023-07-31T01:34:28;5.43;;;2.47;;
23531;SDS011;11943;52.270;20.978;2023-07-31T01:36:58;2.42;;;2.22;;
23531;SDS011;11943;52.270;20.978;2023-07-31T01:39:23;5.03;;;2.78;;
23531;SDS011;11943;52.270;20.978;2023-07-31T01:41:49;2.92;;;2.30;;
23531;SDS011;11943;52.270;20.978;2023-07-31T01:44:15;3.58;;;2.50;;
23531;SDS011;11943;52.270;20.978;2023-07-31T01:46:41;4.10;;;2.67;;
23531;SDS011;11943;52.270;20.978;2023-07-31T01:49:07;3.08;;;2.53;;
23531;SDS011;11943;52.270;20.978;2023-07-31T01:51:33;2.70;;;2.42;;
23531;SDS011;11943;52.270;20.978;2023-07-31T01:53:59;7.13;;;2.38;;
23531;SDS011;11943;52.270;20.978;2023-07-31T01:56:25;6.18;;;2.55;;
23531;SDS011;11943;52.270;20.978;2023-07-31T01:58:51;2.63;;;2.40;;
23531;SDS011;11943;52.270;20.978;2023-07-31T02:01:17;4.00;;;2.72;;
23531;SDS011;11943;52.270;20.978;2023-07-31T02:03:42;2.70;;;2.50;;
23531;SDS011;11943;52.270;20.978;2023-07-31T02:06:08;10.45;;;2.67;;
23531;SDS011;11943;52.270;20.978;2023-07-31T02:08:34;5.03;;;2.45;;
23531;SDS011;11943;52.270;20.978;2023-07-31T02:10:59;5.88;;;2.78;;
23531;SDS011;11943;52.270;20.978;2023-07-31T02:13:25;4.18;;;2.80;;
23531;SDS011;11943;52.270;20.978;2023-07-31T02:15:51;7.65;;;2.28;;
23531;SDS011;11943;52.270;20.978;2023-07-31T02:18:16;7.28;;;2.97;;
23531;SDS011;11943;52.270;20.978;2023-07-31T02:20:42;4.93;;;2.70;;
23531;SDS011;11943;52.270;20.978;2023-07-31T02:23:08;7.00;;;2.72;;
23531;SDS011;11943;52.270;20.978;2023-07-31T02:25:34;3.30;;;2.72;;
23531;SDS011;11943;52.270;20.978;2023-07-31T02:27:59;7.30;;;3.00;;
23531;SDS011;11943;52.270;20.978;2023-07-31T02:30:25;3.50;;;3.20;;
23531;SDS011;11943;52.270;20.978;2023-07-31T02:32:51;7.30;;;3.13;;
23531;SDS011;11943;52.270;20.978;2023-07-31T02:35:16;5.70;;;3.35;;
23531;SDS011;11943;52.270;20.978;2023-07-31T02:37:43;4.30;;;3.30;;
23531;SDS011;11943;52.270;20.978;2023-07-31T02:40:09;3.42;;;3.08;;
23531;SDS011;11943;52.270;20.978;2023-07-31T02:42:35;4.45;;;3.00;;
23531;SDS011;11943;52.270;20.978;2023-07-31T02:45:00;3.25;;;2.95;;
23531;SDS011;11943;52.270;20.978;2023-07-31T02:47:26;5.38;;;3.05;;
23531;SDS011;11943;52.270;20.978;2023-07-31T02:49:53;5.93;;;3.30;;
23531;SDS011;11943;52.270;20.978;2023-07-31T02:52:18;3.47;;;3.17;;
23531;SDS011;11943;52.270;20.978;2023-07-31T02:54:44;3.20;;;2.90;;
23531;SDS011;11943;52.270;20.978;2023-07-31T02:57:10;3.78;;;3.30;;
23531;SDS011;11943;52.270;20.978;2023-07-31T02:59:36;4.88;;;3.28;;
23531;SDS011;11943;52.270;20.978;2023-07-31T03:02:01;4.45;;;3.45;;
23531;SDS011;11943;52.270;20.978;2023-07-31T03:04:27;7.40;;;3.63;;
23531;SDS011;11943;52.270;20.978;2023-07-31T03:06:53;6.38;;;3.10;;
23531;SDS011;11943;52.270;20.978;2023-07-31T03:09:18;9.68;;;3.75;;
23531;SDS011;11943;52.270;20.978;2023-07-31T03:11:44;6.70;;;3.47;;
23531;SDS011;11943;52.270;20.978;2023-07-31T03:14:10;4.53;;;3.20;;
23531;SDS011;11943;52.270;20.978;2023-07-31T03:16:35;5.72;;;3.13;;
23531;SDS011;11943;52.270;20.978;2023-07-31T03:19:01;6.40;;;3.33;;
23531;SDS011;11943;52.270;20.978;2023-07-31T03:21:26;4.05;;;3.25;;
23531;SDS011;11943;52.270;20.978;2023-07-31T03:23:52;3.30;;;3.00;;
23531;SDS011;11943;52.270;20.978;2023-07-31T03:26:18;3.10;;;2.80;;
23531;SDS011;11943;52.270;20.978;2023-07-31T03:28:44;5.28;;;3.13;;
23531;SDS011;11943;52.270;20.978;2023-07-31T03:31:09;4.90;;;2.92;;
23531;SDS011;11943;52.270;20.978;2023-07-31T03:33:36;3.55;;;3.03;;
23531;SDS011;11943;52.270;20.978;2023-07-31T03:36:02;10.88;;;3.50;;
23531;SDS011;11943;52.270;20.978;2023-07-31T03:38:28;5.22;;;2.95;;
23531;SDS011;11943;52.270;20.978;2023-07-31T03:40:53;3.72;;;3.33;;
23531;SDS011;11943;52.270;20.978;2023-07-31T03:43:19;7.47;;;3.28;;
23531;SDS011;11943;52.270;20.978;2023-07-31T03:45:44;6.68;;;3.25;;
23531;SDS011;11943;52.270;20.978;2023-07-31T03:48:10;4.70;;;3.42;;
23531;SDS011;11943;52.270;20.978;2023-07-31T03:50:36;4.30;;;3.05;;
23531;SDS011;11943;52.270;20.978;2023-07-31T03:53:02;4.53;;;2.85;;
23531;SDS011;11943;52.270;20.978;2023-07-31T03:55:27;4.25;;;3.15;;
23531;SDS011;11943;52.270;20.978;2023-07-31T03:57:53;6.03;;;3.10;;
23531;SDS011;11943;52.270;20.978;2023-07-31T04:00:18;3.45;;;3.13;;
23531;SDS011;11943;52.270;20.978;2023-07-31T04:02:44;4.75;;;3.20;;
23531;SDS011;11943;52.270;20.978;2023-07-31T04:05:10;5.78;;;3.30;;
23531;SDS011;11943;52.270;20.978;2023-07-31T04:07:35;5.72;;;2.97;;
23531;SDS011;11943;52.270;20.978;2023-07-31T04:10:03;3.50;;;3.05;;
23531;SDS011;11943;52.270;20.978;2023-07-31T04:12:29;4.63;;;3.30;;
23531;SDS011;11943;52.270;20.978;2023-07-31T04:14:54;5.60;;;3.10;;
23531;SDS011;11943;52.270;20.978;2023-07-31T04:17:20;5.35;;;3.15;;
23531;SDS011;11943;52.270;20.978;2023-07-31T04:19:45;5.25;;;3.42;;
23531;SDS011;11943;52.270;20.978;2023-07-31T04:22:11;6.18;;;3.00;;
23531;SDS011;11943;52.270;20.978;2023-07-31T04:24:37;5.82;;;3.17;;
23531;SDS011;11943;52.270;20.978;2023-07-31T04:27:02;8.80;;;2.70;;
23531;SDS011;11943;52.270;20.978;2023-07-31T04:29:28;10.32;;;3.20;;
23531;SDS011;11943;52.270;20.978;2023-07-31T04:31:54;6.60;;;2.67;;
23531;SDS011;11943;52.270;20.978;2023-07-31T04:34:19;7.53;;;3.00;;
23531;SDS011;11943;52.270;20.978;2023-07-31T04:36:45;5.32;;;3.13;;
23531;SDS011;11943;52.270;20.978;2023-07-31T04:39:11;5.65;;;3.00;;
23531;SDS011;11943;52.270;20.978;2023-07-31T04:41:36;3.88;;;2.67;;
23531;SDS011;11943;52.270;20.978;2023-07-31T04:44:02;6.22;;;2.67;;
23531;SDS011;11943;52.270;20.978;2023-07-31T04:46:28;4.68;;;2.88;;
23531;SDS011;11943;52.270;20.978;2023-07-31T04:48:54;5.78;;;3.10;;
23531;SDS011;11943;52.270;20.978;2023-07-31T04:51:21;4.20;;;2.72;;
23531;SDS011;11943;52.270;20.978;2023-07-31T04:53:46;3.65;;;3.05;;
23531;SDS011;11943;52.270;20.978;2023-07-31T04:56:12;4.50;;;2.70;;
23531;SDS011;11943;52.270;20.978;2023-07-31T04:58:38;4.07;;;2.75;;
23531;SDS011;11943;52.270;20.978;2023-07-31T05:01:04;3.67;;;2.63;;
23531;SDS011;11943;52.270;20.978;2023-07-31T05:03:30;6.75;;;3.13;;
23531;SDS011;11943;52.270;20.978;2023-07-31T05:05:55;7.00;;;2.92;;
23531;SDS011;11943;52.270;20.978;2023-07-31T05:08:21;4.28;;;3.42;;
23531;SDS011;11943;52.270;20.978;2023-07-31T05:10:46;6.25;;;3.03;;
23531;SDS011;11943;52.270;20.978;2023-07-31T05:13:12;7.07;;;3.55;;
23531;SDS011;11943;52.270;20.978;2023-07-31T05:15:38;6.28;;;2.78;;
23531;SDS011;11943;52.270;20.978;2023-07-31T05:18:03;3.25;;;2.83;;
23531;SDS011;11943;52.270;20.978;2023-07-31T05:20:29;5.22;;;2.90;;
23531;SDS011;11943;52.270;20.978;2023-07-31T05:22:54;5.63;;;2.90;;
23531;SDS011;11943;52.270;20.978;2023-07-31T05:25:20;4.85;;;3.67;;
23531;SDS011;11943;52.270;20.978;2023-07-31T05:27:46;4.82;;;3.13;;
23531;SDS011;11943;52.270;20.978;2023-07-31T05:30:11;8.85;;;2.95;;
23531;SDS011;11943;52.270;20.978;2023-07-31T05:32:37;8.32;;;3.20;;
23531;SDS011;11943;52.270;20.978;2023-07-31T05:35:02;4.60;;;3.10;;
23531;SDS011;11943;52.270;20.978;2023-07-31T05:37:29;3.53;;;2.88;;
23531;SDS011;11943;52.270;20.978;2023-07-31T05:39:54;4.53;;;2.83;;
23531;SDS011;11943;52.270;20.978;2023-07-31T05:42:20;4.57;;;3.42;;
23531;SDS011;11943;52.270;20.978;2023-07-31T05:44:45;4.53;;;3.08;;
23531;SDS011;11943;52.270;20.978;2023-07-31T05:47:12;4.00;;;2.85;;
23531;SDS011;11943;52.270;20.978;2023-07-31T05:49:37;6.07;;;3.05;;
23531;SDS011;11943;52.270;20.978;2023-07-31T05:52:03;10.20;;;2.90;;
23531;SDS011;11943;52.270;20.978;2023-07-31T05:54:29;5.20;;;3.28;;
23531;SDS011;11943;52.270;20.978;2023-07-31T05:56:55;4.47;;;2.63;;
23531;SDS011;11943;52.270;20.978;2023-07-31T05:59:20;5.03;;;2.92;;
23531;SDS011;11943;52.270;20.978;2023-07-31T06:01:46;6.38;;;3.17;;
23531;SDS011;11943;52.270;20.978;2023-07-31T06:04:12;3.53;;;2.92;;
23531;SDS011;11943;52.270;20.978;2023-07-31T06:06:37;6.50;;;3.38;;
23531;SDS011;11943;52.270;20.978;2023-07-31T06:09:03;7.50;;;2.78;;
23531;SDS011;11943;52.270;20.978;2023-07-31T06:11:29;3.70;;;2.50;;
23531;SDS011;11943;52.270;20.978;2023-07-31T06:13:54;6.20;;;3.15;;
23531;SDS011;11943;52.270;20.978;2023-07-31T06:16:20;5.82;;;2.45;;
23531;SDS011;11943;52.270;20.978;2023-07-31T06:18:46;6.05;;;2.65;;
23531;SDS011;11943;52.270;20.978;2023-07-31T06:21:12;7.50;;;2.58;;
23531;SDS011;11943;52.270;20.978;2023-07-31T06:23:38;4.00;;;2.70;;
23531;SDS011;11943;52.270;20.978;2023-07-31T06:26:04;4.47;;;2.72;;
23531;SDS011;11943;52.270;20.978;2023-07-31T06:28:30;4.20;;;2.80;;
23531;SDS011;11943;52.270;20.978;2023-07-31T06:30:57;3.30;;;2.60;;
23531;SDS011;11943;52.270;20.978;2023-07-31T06:33:23;6.65;;;2.83;;
23531;SDS011;11943;52.270;20.978;2023-07-31T06:35:49;5.22;;;2.70;;
23531;SDS011;11943;52.270;20.978;2023-07-31T06:38:15;3.95;;;2.80;;
23531;SDS011;11943;52.270;20.978;2023-07-31T06:40:43;3.60;;;2.88;;
23531;SDS011;11943;52.270;20.978;2023-07-31T06:43:09;5.60;;;2.47;;
23531;SDS011;11943;52.270;20.978;2023-07-31T06:45:35;3.47;;;2.97;;
23531;SDS011;11943;52.270;20.978;2023-07-31T06:50:28;5.63;;;3.10;;
23531;SDS011;11943;52.270;20.978;2023-07-31T06:52:57;5.05;;;2.95;;
23531;SDS011;11943;52.270;20.978;2023-07-31T06:55:23;7.05;;;3.67;;
23531;SDS011;11943;52.270;20.978;2023-07-31T06:57:51;6.07;;;3.28;;
23531;SDS011;11943;52.270;20.978;2023-07-31T07:00:19;7.03;;;3.20;;
23531;SDS011;11943;52.270;20.978;2023-07-31T07:02:45;4.22;;;3.10;;
23531;SDS011;11943;52.270;20.978;2023-07-31T07:05:14;7.47;;;3.35;;
23531;SDS011;11943;52.270;20.978;2023-07-31T07:07:41;3.57;;;3.03;;
23531;SDS011;11943;52.270;20.978;2023-07-31T07:10:07;3.85;;;2.60;;
23531;SDS011;11943;52.270;20.978;2023-07-31T07:12:33;6.85;;;3.00;;
23531;SDS011;11943;52.270;20.978;2023-07-31T07:15:00;4.87;;;3.20;;
23531;SDS011;11943;52.270;20.978;2023-07-31T07:17:27;4.57;;;3.00;;
23531;SDS011;11943;52.270;20.978;2023-07-31T07:19:56;7.00;;;2.92;;
23531;SDS011;11943;52.270;20.978;2023-07-31T07:22:22;4.88;;;2.50;;
23531;SDS011;11943;52.270;20.978;2023-07-31T07:24:48;15.43;;;3.35;;
23531;SDS011;11943;52.270;20.978;2023-07-31T07:27:13;8.20;;;2.63;;
23531;SDS011;11943;52.270;20.978;2023-07-31T07:29:39;4.03;;;2.95;;
23531;SDS011;11943;52.270;20.978;2023-07-31T07:32:05;4.88;;;2.83;;
23531;SDS011;11943;52.270;20.978;2023-07-31T07:34:31;8.25;;;2.90;;
23531;SDS011;11943;52.270;20.978;2023-07-31T07:36:57;6.72;;;3.45;;
23531;SDS011;11943;52.270;20.978;2023-07-31T07:39:22;3.78;;;2.75;;
23531;SDS011;11943;52.270;20.978;2023-07-31T07:41:48;4.68;;;3.00;;
23531;SDS011;11943;52.270;20.978;2023-07-31T07:44:14;5.57;;;2.65;;
23531;SDS011;11943;52.270;20.978;2023-07-31T07:46:40;4.15;;;2.38;;
23531;SDS011;11943;52.270;20.978;2023-07-31T07:49:05;4.88;;;2.95;;
23531;SDS011;11943;52.270;20.978;2023-07-31T07:51:31;5.15;;;2.65;;
23531;SDS011;11943;52.270;20.978;2023-07-31T07:53:58;5.35;;;2.85;;
23531;SDS011;11943;52.270;20.978;2023-07-31T07:58:50;3.42;;;2.60;;
23531;SDS011;11943;52.270;20.978;2023-07-31T08:01:16;12.45;;;2.83;;
23531;SDS011;11943;52.270;20.978;2023-07-31T08:03:42;4.18;;;2.13;;
23531;SDS011;11943;52.270;20.978;2023-07-31T08:06:08;6.85;;;3.03;;
23531;SDS011;11943;52.270;20.978;2023-07-31T08:08:34;5.93;;;2.65;;
23531;SDS011;11943;52.270;20.978;2023-07-31T08:11:00;5.20;;;2.47;;
23531;SDS011;11943;52.270;20.978;2023-07-31T08:13:26;3.55;;;2.35;;
23531;SDS011;11943;52.270;20.978;2023-07-31T08:15:52;5.15;;;2.65;;
23531;SDS011;11943;52.270;20.978;2023-07-31T08:18:18;4.13;;;2.17;;
23531;SDS011;11943;52.270;20.978;2023-07-31T08:20:44;5.93;;;2.72;;
23531;SDS011;11943;52.270;20.978;2023-07-31T08:23:09;10.40;;;2.50;;
23531;SDS011;11943;52.270;20.978;2023-07-31T08:25:35;4.32;;;2.30;;
23531;SDS011;11943;52.270;20.978;2023-07-31T08:28:02;4.60;;;2.33;;
23531;SDS011;11943;52.270;20.978;2023-07-31T08:30:28;8.68;;;2.45;;
23531;SDS011;11943;52.270;20.978;2023-07-31T08:32:54;6.35;;;2.35;;
23531;SDS011;11943;52.270;20.978;2023-07-31T08:35:19;3.75;;;2.15;;
23531;SDS011;11943;52.270;20.978;2023-07-31T08:37:45;3.83;;;2.47;;
23531;SDS011;11943;52.270;20.978;2023-07-31T08:40:11;4.53;;;2.38;;
23531;SDS011;11943;52.270;20.978;2023-07-31T08:42:43;2.45;;;1.80;;
23531;SDS011;11943;52.270;20.978;2023-07-31T08:45:13;3.10;;;2.20;;
23531;SDS011;11943;52.270;20.978;2023-07-31T08:50:13;7.50;;;2.10;;
23531;SDS011;11943;52.270;20.978;2023-07-31T08:52:40;8.35;;;2.28;;
23531;SDS011;11943;52.270;20.978;2023-07-31T08:55:06;6.35;;;2.45;;
23531;SDS011;11943;52.270;20.978;2023-07-31T08:57:34;5.35;;;2.25;;
23531;SDS011;11943;52.270;20.978;2023-07-31T09:00:02;3.97;;;2.13;;
23531;SDS011;11943;52.270;20.978;2023-07-31T09:02:31;8.48;;;2.28;;
23531;SDS011;11943;52.270;20.978;2023-07-31T09:05:13;8.23;;;2.38;;
23531;SDS011;11943;52.270;20.978;2023-07-31T09:07:40;3.25;;;2.17;;
23531;SDS011;11943;52.270;20.978;2023-07-31T09:10:11;4.65;;;2.10;;
23531;SDS011;11943;52.270;20.978;2023-07-31T09:12:37;6.47;;;2.20;;
23531;SDS011;11943;52.270;20.978;2023-07-31T09:15:04;5.88;;;1.92;;
23531;SDS011;11943;52.270;20.978;2023-07-31T09:17:30;7.15;;;2.55;;
23531;SDS011;11943;52.270;20.978;2023-07-31T09:19:57;3.65;;;1.88;;
23531;SDS011;11943;52.270;20.978;2023-07-31T09:22:32;5.95;;;2.22;;
23531;SDS011;11943;52.270;20.978;2023-07-31T09:30:14;3.78;;;2.33;;
23531;SDS011;11943;52.270;20.978;2023-07-31T09:32:40;4.70;;;2.23;;
23531;SDS011;11943;52.270;20.978;2023-07-31T09:35:13;4.10;;;1.85;;
23531;SDS011;11943;52.270;20.978;2023-07-31T09:37:58;2.90;;;1.77;;
23531;SDS011;11943;52.270;20.978;2023-07-31T09:40:30;9.15;;;1.90;;
23531;SDS011;11943;52.270;20.978;2023-07-31T09:43:01;4.72;;;1.60;;
23531;SDS011;11943;52.270;20.978;2023-07-31T09:45:33;5.07;;;2.00;;
23531;SDS011;11943;52.270;20.978;2023-07-31T09:48:01;4.10;;;1.95;;
23531;SDS011;11943;52.270;20.978;2023-07-31T09:50:27;8.00;;;2.03;;
23531;SDS011;11943;52.270;20.978;2023-07-31T09:52:53;4.72;;;1.80;;
23531;SDS011;11943;52.270;20.978;2023-07-31T09:55:19;6.57;;;1.98;;
23531;SDS011;11943;52.270;20.978;2023-07-31T09:57:46;3.95;;;2.00;;
23531;SDS011;11943;52.270;20.978;2023-07-31T10:00:13;5.05;;;1.80;;
23531;SDS011;11943;52.270;20.978;2023-07-31T10:02:40;2.60;;;1.48;;
23531;SDS011;11943;52.270;20.978;2023-07-31T10:05:07;3.42;;;1.30;;
23531;SDS011;11943;52.270;20.978;2023-07-31T10:07:36;3.25;;;1.38;;
23531;SDS011;11943;52.270;20.978;2023-07-31T10:10:04;4.40;;;1.63;;
23531;SDS011;11943;52.270;20.978;2023-07-31T10:12:32;5.32;;;1.48;;
23531;SDS011;11943;52.270;20.978;2023-07-31T10:14:59;3.58;;;1.50;;
23531;SDS011;11943;52.270;20.978;2023-07-31T10:17:25;4.85;;;1.55;;
23531;SDS011;11943;52.270;20.978;2023-07-31T10:19:52;3.28;;;1.60;;
23531;SDS011;11943;52.270;20.978;2023-07-31T10:22:21;1.73;;;1.35;;
23531;SDS011;11943;52.270;20.978;2023-07-31T10:24:47;4.20;;;1.90;;
23531;SDS011;11943;52.270;20.978;2023-07-31T10:27:14;1.75;;;1.48;;
23531;SDS011;11943;52.270;20.978;2023-07-31T10:29:40;4.03;;;1.52;;
23531;SDS011;11943;52.270;20.978;2023-07-31T10:32:08;4.75;;;1.65;;
23531;SDS011;11943;52.270;20.978;2023-07-31T10:34:36;2.17;;;1.30;;
23531;SDS011;11943;52.270;20.978;2023-07-31T10:37:20;4.35;;;1.40;;
23531;SDS011;11943;52.270;20.978;2023-07-31T10:40:00;2.70;;;1.30;;
23531;SDS011;11943;52.270;20.978;2023-07-31T10:42:35;3.53;;;1.58;;
23531;SDS011;11943;52.270;20.978;2023-07-31T10:47:31;3.28;;;1.23;;
23531;SDS011;11943;52.270;20.978;2023-07-31T10:50:11;3.45;;;1.35;;
23531;SDS011;11943;52.270;20.978;2023-07-31T10:52:38;5.28;;;1.70;;
23531;SDS011;11943;52.270;20.978;2023-07-31T10:57:57;3.65;;;1.30;;
23531;SDS011;11943;52.270;20.978;2023-07-31T11:00:29;2.95;;;1.27;;
23531;SDS011;11943;52.270;20.978;2023-07-31T11:02:56;3.88;;;1.30;;
23531;SDS011;11943;52.270;20.978;2023-07-31T11:08:21;1.45;;;1.20;;
23531;SDS011;11943;52.270;20.978;2023-07-31T11:11:04;2.53;;;1.42;;
23531;SDS011;11943;52.270;20.978;2023-07-31T11:13:32;3.78;;;1.30;;
23531;SDS011;11943;52.270;20.978;2023-07-31T11:16:04;2.47;;;1.27;;
23531;SDS011;11943;52.270;20.978;2023-07-31T11:18:30;2.83;;;1.48;;
23531;SDS011;11943;52.270;20.978;2023-07-31T11:20:55;2.83;;;1.30;;
23531;SDS011;11943;52.270;20.978;2023-07-31T11:23:21;3.83;;;1.60;;
23531;SDS011;11943;52.270;20.978;2023-07-31T11:25:48;4.57;;;1.35;;
23531;SDS011;11943;52.270;20.978;2023-07-31T11:28:15;5.00;;;1.25;;
23531;SDS011;11943;52.270;20.978;2023-07-31T11:30:42;2.23;;;1.30;;
23531;SDS011;11943;52.270;20.978;2023-07-31T11:33:09;7.07;;;1.73;;
23531;SDS011;11943;52.270;20.978;2023-07-31T11:38:10;6.75;;;1.42;;
23531;SDS011;11943;52.270;20.978;2023-07-31T11:43:06;2.92;;;1.38;;
23531;SDS011;11943;52.270;20.978;2023-07-31T11:45:32;3.40;;;1.13;;
23531;SDS011;11943;52.270;20.978;2023-07-31T11:48:00;3.13;;;1.10;;
23531;SDS011;11943;52.270;20.978;2023-07-31T11:50:26;2.58;;;1.38;;
23531;SDS011;11943;52.270;20.978;2023-07-31T11:53:00;4.70;;;1.27;;
23531;SDS011;11943;52.270;20.978;2023-07-31T11:55:32;2.67;;;1.30;;
23531;SDS011;11943;52.270;20.978;2023-07-31T11:57:58;6.05;;;1.30;;
23531;SDS011;11943;52.270;20.978;2023-07-31T12:00:25;2.45;;;1.30;;
23531;SDS011;11943;52.270;20.978;2023-07-31T12:02:52;3.45;;;1.25;;
23531;SDS011;11943;52.270;20.978;2023-07-31T12:05:18;5.90;;;1.30;;
23531;SDS011;11943;52.270;20.978;2023-07-31T12:07:48;3.65;;;1.50;;
23531;SDS011;11943;52.270;20.978;2023-07-31T12:10:48;7.40;;;1.55;;
23531;SDS011;11943;52.270;20.978;2023-07-31T12:13:12;7.90;;;1.85;;
23531;SDS011;11943;52.270;20.978;2023-07-31T12:15:54;1.75;;;1.10;;
23531;SDS011;11943;52.270;20.978;2023-07-31T12:18:25;3.15;;;1.40;;
23531;SDS011;11943;52.270;20.978;2023-07-31T12:20:55;4.00;;;1.50;;
23531;SDS011;11943;52.270;20.978;2023-07-31T12:23:24;3.47;;;1.52;;
23531;SDS011;11943;52.270;20.978;2023-07-31T12:26:05;3.55;;;1.30;;
23531;SDS011;11943;52.270;20.978;2023-07-31T12:28:40;3.92;;;1.30;;
23531;SDS011;11943;52.270;20.978;2023-07-31T12:31:08;1.65;;;1.17;;
23531;SDS011;11943;52.270;20.978;2023-07-31T12:33:40;3.63;;;1.60;;
23531;SDS011;11943;52.270;20.978;2023-07-31T12:36:07;6.22;;;1.70;;
23531;SDS011;11943;52.270;20.978;2023-07-31T12:38:35;3.45;;;1.50;;
23531;SDS011;11943;52.270;20.978;2023-07-31T12:41:00;4.93;;;1.52;;
23531;SDS011;11943;52.270;20.978;2023-07-31T12:43:26;2.33;;;1.30;;
23531;SDS011;11943;52.270;20.978;2023-07-31T12:45:53;3.85;;;1.40;;
23531;SDS011;11943;52.270;20.978;2023-07-31T12:50:45;4.93;;;1.40;;
23531;SDS011;11943;52.270;20.978;2023-07-31T12:53:10;4.28;;;1.40;;
23531;SDS011;11943;52.270;20.978;2023-07-31T12:55:36;11.65;;;1.75;;
23531;SDS011;11943;52.270;20.978;2023-07-31T12:58:02;5.07;;;2.08;;
23531;SDS011;11943;52.270;20.978;2023-07-31T13:00:28;2.42;;;1.40;;
23531;SDS011;11943;52.270;20.978;2023-07-31T13:02:54;3.97;;;1.88;;
23531;SDS011;11943;52.270;20.978;2023-07-31T13:05:20;3.53;;;1.60;;
23531;SDS011;11943;52.270;20.978;2023-07-31T13:07:46;9.50;;;2.40;;
23531;SDS011;11943;52.270;20.978;2023-07-31T13:10:12;3.97;;;1.90;;
23531;SDS011;11943;52.270;20.978;2023-07-31T13:12:38;5.35;;;1.90;;
23531;SDS011;11943;52.270;20.978;2023-07-31T13:15:04;2.70;;;1.52;;
23531;SDS011;11943;52.270;20.978;2023-07-31T13:17:31;5.47;;;1.90;;
23531;SDS011;11943;52.270;20.978;2023-07-31T13:19:57;4.22;;;1.60;;
23531;SDS011;11943;52.270;20.978;2023-07-31T13:22:22;4.18;;;1.42;;
23531;SDS011;11943;52.270;20.978;2023-07-31T13:24:48;2.22;;;1.38;;
23531;SDS011;11943;52.270;20.978;2023-07-31T13:27:14;5.03;;;1.73;;
23531;SDS011;11943;52.270;20.978;2023-07-31T13:29:47;4.72;;;1.48;;
23531;SDS011;11943;52.270;20.978;2023-07-31T13:32:14;3.15;;;1.15;;
23531;SDS011;11943;52.270;20.978;2023-07-31T13:34:40;5.32;;;1.67;;
23531;SDS011;11943;52.270;20.978;2023-07-31T13:37:06;2.28;;;1.25;;
23531;SDS011;11943;52.270;20.978;2023-07-31T13:39:31;4.00;;;1.63;;
23531;SDS011;11943;52.270;20.978;2023-07-31T13:41:58;6.25;;;1.80;;
23531;SDS011;11943;52.270;20.978;2023-07-31T13:44:24;7.93;;;2.00;;
23531;SDS011;11943;52.270;20.978;2023-07-31T13:46:49;3.15;;;1.35;;
23531;SDS011;11943;52.270;20.978;2023-07-31T13:49:16;3.25;;;1.67;;
23531;SDS011;11943;52.270;20.978;2023-07-31T13:51:41;7.40;;;1.73;;
23531;SDS011;11943;52.270;20.978;2023-07-31T13:54:07;5.55;;;1.40;;
23531;SDS011;11943;52.270;20.978;2023-07-31T13:56:33;5.20;;;1.27;;
23531;SDS011;11943;52.270;20.978;2023-07-31T13:58:59;5.03;;;1.33;;
23531;SDS011;11943;52.270;20.978;2023-07-31T14:01:26;3.33;;;1.60;;
23531;SDS011;11943;52.270;20.978;2023-07-31T14:03:51;3.05;;;1.35;;
23531;SDS011;11943;52.270;20.978;2023-07-31T14:06:17;4.30;;;1.27;;
23531;SDS011;11943;52.270;20.978;2023-07-31T14:08:43;3.30;;;1.58;;
23531;SDS011;11943;52.270;20.978;2023-07-31T14:11:08;4.68;;;1.55;;
23531;SDS011;11943;52.270;20.978;2023-07-31T14:13:34;6.97;;;1.77;;
23531;SDS011;11943;52.270;20.978;2023-07-31T14:15:59;3.75;;;1.38;;
23531;SDS011;11943;52.270;20.978;2023-07-31T14:18:25;4.80;;;1.42;;
23531;SDS011;11943;52.270;20.978;2023-07-31T14:20:51;6.97;;;2.13;;
23531;SDS011;11943;52.270;20.978;2023-07-31T14:23:17;3.60;;;1.52;;
23531;SDS011;11943;52.270;20.978;2023-07-31T14:25:44;7.88;;;1.52;;
23531;SDS011;11943;52.270;20.978;2023-07-31T14:28:10;5.88;;;1.88;;
23531;SDS011;11943;52.270;20.978;2023-07-31T14:30:36;4.53;;;1.40;;
23531;SDS011;11943;52.270;20.978;2023-07-31T14:33:02;6.03;;;1.90;;
23531;SDS011;11943;52.270;20.978;2023-07-31T14:35:28;8.05;;;1.83;;
23531;SDS011;11943;52.270;20.978;2023-07-31T14:37:53;9.20;;;2.08;;
23531;SDS011;11943;52.270;20.978;2023-07-31T14:40:19;5.20;;;1.88;;
23531;SDS011;11943;52.270;20.978;2023-07-31T14:42:45;3.38;;;1.40;;
23531;SDS011;11943;52.270;20.978;2023-07-31T14:45:11;3.83;;;1.52;;
23531;SDS011;11943;52.270;20.978;2023-07-31T14:47:37;4.93;;;1.60;;
23531;SDS011;11943;52.270;20.978;2023-07-31T14:50:02;5.22;;;1.60;;
23531;SDS011;11943;52.270;20.978;2023-07-31T14:52:28;6.22;;;1.30;;
23531;SDS011;11943;52.270;20.978;2023-07-31T14:54:54;4.05;;;1.48;;
23531;SDS011;11943;52.270;20.978;2023-07-31T14:57:20;6.50;;;1.80;;
23531;SDS011;11943;52.270;20.978;2023-07-31T14:59:46;4.03;;;1.50;;
23531;SDS011;11943;52.270;20.978;2023-07-31T15:02:12;6.47;;;1.60;;
23531;SDS011;11943;52.270;20.978;2023-07-31T15:04:38;4.05;;;1.58;;
23531;SDS011;11943;52.270;20.978;2023-07-31T15:07:04;4.93;;;1.40;;